createdAt,value
2022-08-08T00:00:54.227Z,63.16
2022-08-08T00:00:54.519Z,61.83
2022-08-08T00:02:04.215Z,65.80
2022-08-08T00:02:38.520Z,66.04
2022-08-08T00:03:38.513Z,66.44
2022-08-08T00:04:37.518Z,66.35
2022-08-08T00:05:43.457Z,67.66
2022-08-08T00:06:38.476Z,67.05
2022-08-08T00:07:37.993Z,64.72
2022-08-08T00:08:37.440Z,66.75
2022-08-08T00:09:37.420Z,66.75
2022-08-08T00:10:37.419Z,65.46
2022-08-08T00:11:47.109Z,64.54
2022-08-08T00:12:38.389Z,65.77
2022-08-08T00:14:17.224Z,65.05
2022-08-08T00:14:59.017Z,67.08
2022-08-08T00:15:57.390Z,65.05
2022-08-08T00:16:38.358Z,64.14
2022-08-08T00:18:01.720Z,63.53
2022-08-08T00:18:38.331Z,66.27
2022-08-08T00:19:37.288Z,65.16
2022-08-08T00:20:37.430Z,65.36
2022-08-08T00:21:39.783Z,65.89
2022-08-08T00:22:39.808Z,65.28
2022-08-08T00:23:43.363Z,64.87
2022-08-08T00:24:38.217Z,64.26
2022-08-08T00:25:45.093Z,63.56
2022-08-08T00:26:38.208Z,64.78
2022-08-08T00:27:37.178Z,67.12
2022-08-08T00:28:37.167Z,69.56
2022-08-08T00:29:45.962Z,68.85
2022-08-08T00:30:45.219Z,69.26
2022-08-08T00:32:20.137Z,69.15
2022-08-08T00:32:38.118Z,70.48
2022-08-08T00:34:18.035Z,68.34
2022-08-08T00:34:38.086Z,66.54
2022-08-08T00:35:37.493Z,65.62
2022-08-08T00:36:37.078Z,68.37
2022-08-08T00:37:47.765Z,70.00
2022-08-08T00:38:44.336Z,68.57
2022-08-08T00:41:09.666Z,66.44
2022-08-08T00:41:10.901Z,65.22
2022-08-08T00:41:54.919Z,63.79
2022-08-08T00:42:41.831Z,63.28
2022-08-08T00:43:40.754Z,64.20
2022-08-08T00:44:36.986Z,65.92
2022-08-08T00:45:36.945Z,67.25
2022-08-08T00:46:57.497Z,66.33
2022-08-08T00:48:05.311Z,67.05
2022-08-08T00:48:37.905Z,67.86
2022-08-08T00:49:36.906Z,69.09
2022-08-08T00:50:40.894Z,70.31
2022-08-08T00:51:39.114Z,69.59
2022-08-08T00:52:39.428Z,69.39
2022-08-08T00:53:43.657Z,69.93
2022-08-08T00:54:37.825Z,68.40
2022-08-08T00:55:52.942Z,67.08
2022-08-08T00:56:37.836Z,68.91
2022-08-08T00:57:36.785Z,67.38
2022-08-08T00:58:36.766Z,67.29
2022-08-08T00:59:43.840Z,66.36
2022-08-08T01:00:38.029Z,67.49
2022-08-08T01:01:38.227Z,65.45
2022-08-08T01:03:59.157Z,65.34
2022-08-08T01:04:00.837Z,65.86
2022-08-08T01:04:37.695Z,67.38
2022-08-08T01:05:58.784Z,65.95
2022-08-08T01:06:37.764Z,69.12
2022-08-08T01:07:55.255Z,68.10
2022-08-08T01:08:37.655Z,68.23
2022-08-08T01:09:40.948Z,67.93
2022-08-08T01:10:37.624Z,66.70
2022-08-08T01:11:37.703Z,70.57
2022-08-08T01:12:36.584Z,70.07
2022-08-08T01:13:44.095Z,67.82
2022-08-08T01:14:54.910Z,66.70
2022-08-08T01:15:43.929Z,67.62
2022-08-08T01:16:37.528Z,69.25
2022-08-08T01:17:54.125Z,69.56
2022-08-08T01:18:53.686Z,69.05
2022-08-08T01:19:52.412Z,70.98
2022-08-08T01:20:37.496Z,71.29
2022-08-08T01:22:13.125Z,68.74
2022-08-08T01:22:37.722Z,67.01
2022-08-08T01:24:02.611Z,70.07
2022-08-08T01:24:37.460Z,68.54
2022-08-08T01:25:40.118Z,69.15
2022-08-08T01:26:36.409Z,67.11
2022-08-08T01:27:44.116Z,65.68
2022-08-08T01:28:38.392Z,66.63
2022-08-08T01:29:59.899Z,67.76
2022-08-08T01:30:37.363Z,66.53
2022-08-08T01:32:15.116Z,69.79
2022-08-08T01:32:37.334Z,69.79
2022-08-08T01:33:54.493Z,69.79
2022-08-08T01:34:37.295Z,71.63
2022-08-08T01:35:38.610Z,70.61
2022-08-08T01:36:36.295Z,71.12
2022-08-08T01:37:56.656Z,71.43
2022-08-08T01:38:37.242Z,71.94
2022-08-08T01:39:42.176Z,68.57
2022-08-08T01:40:37.280Z,70.72
2022-08-08T01:41:38.058Z,69.42
2022-08-08T01:42:36.906Z,68.50
2022-08-08T01:43:39.041Z,69.82
2022-08-08T01:44:36.160Z,72.17
2022-08-08T01:45:37.623Z,74.63
2022-08-08T01:46:36.134Z,72.07
2022-08-08T01:48:13.848Z,70.44
2022-08-08T01:48:37.112Z,69.32
2022-08-08T01:49:37.600Z,73.19
2022-08-08T01:50:37.162Z,71.97
2022-08-08T01:52:41.642Z,68.91
2022-08-08T01:53:55.189Z,71.26
2022-08-08T01:55:17.134Z,67.99
2022-08-08T01:55:17.637Z,68.09
2022-08-08T01:56:26.758Z,67.48
2022-08-08T01:56:37.482Z,68.94
2022-08-08T01:58:10.825Z,69.04
2022-08-08T01:58:39.590Z,72.92
2022-08-08T01:59:38.011Z,70.27
2022-08-08T02:00:37.009Z,68.84
2022-08-08T02:01:54.649Z,67.51
2022-08-08T02:02:41.548Z,67.30
2022-08-08T02:03:54.782Z,66.08
2022-08-08T02:04:36.917Z,67.41
2022-08-08T02:05:55.974Z,67.51
2022-08-08T02:06:43.372Z,68.74
2022-08-08T02:07:41.684Z,69.86
2022-08-08T02:08:36.851Z,71.50
2022-08-08T02:10:01.327Z,69.76
2022-08-08T02:10:44.572Z,69.45
2022-08-08T02:11:58.918Z,71.29
2022-08-08T02:12:36.905Z,72.31
2022-08-08T02:13:53.969Z,70.78
2022-08-08T02:14:55.033Z,69.38
2022-08-08T02:15:38.320Z,71.94
2022-08-08T02:16:35.740Z,72.45
2022-08-08T02:17:36.627Z,70.40
2022-08-08T02:18:36.711Z,73.16
2022-08-08T02:20:07.933Z,71.33
2022-08-08T02:21:01.358Z,69.69
2022-08-08T02:21:36.684Z,71.12
2022-08-08T02:22:52.480Z,68.87
2022-08-08T02:23:36.640Z,68.46
2022-08-08T02:24:35.678Z,67.13
2022-08-08T02:25:46.976Z,71.83
2022-08-08T02:26:36.615Z,72.04
2022-08-08T02:27:38.849Z,73.27
2022-08-08T02:28:36.587Z,72.55
2022-08-08T02:29:41.594Z,72.96
2022-08-08T02:30:36.578Z,75.31
2022-08-08T02:31:57.916Z,76.74
2022-08-08T02:32:36.896Z,77.56
2022-08-08T02:34:00.109Z,75.31
2022-08-08T02:34:36.520Z,75.00
2022-08-08T02:35:35.667Z,73.88
2022-08-08T02:36:36.486Z,73.88
2022-08-08T02:37:52.725Z,72.45
2022-08-08T02:38:36.447Z,70.61
2022-08-08T02:39:42.633Z,70.13
2022-08-08T02:40:36.525Z,70.23
2022-08-08T02:41:58.779Z,69.82
2022-08-08T02:42:41.572Z,69.52
2022-08-08T02:44:43.073Z,71.05
2022-08-08T02:44:56.676Z,71.25
2022-08-08T02:45:51.126Z,71.87
2022-08-08T02:46:36.346Z,74.43
2022-08-08T02:47:35.339Z,74.52
2022-08-08T02:48:35.330Z,74.43
2022-08-08T02:49:48.353Z,71.80
2022-08-08T02:50:36.290Z,72.62
2022-08-08T02:51:46.778Z,71.49
2022-08-08T02:52:38.761Z,70.88
2022-08-08T02:53:35.271Z,72.72
2022-08-08T02:54:35.253Z,72.00
2022-08-08T02:55:37.184Z,73.94
2022-08-08T02:56:35.235Z,76.30
2022-08-08T02:57:40.481Z,76.71
2022-08-08T02:58:36.819Z,73.23
2022-08-08T02:59:57.986Z,70.88
2022-08-08T03:00:36.551Z,71.39
2022-08-08T03:01:47.179Z,72.72
2022-08-08T03:02:36.787Z,70.88
2022-08-08T03:05:01.699Z,70.37
2022-08-08T03:05:04.670Z,70.57
2022-08-08T03:05:45.198Z,71.49
2022-08-08T03:06:36.088Z,73.33
2022-08-08T03:07:41.673Z,73.13
2022-08-08T03:08:36.064Z,76.20
2022-08-08T03:09:35.061Z,74.05
2022-08-08T03:10:44.407Z,74.87
2022-08-08T03:12:01.452Z,74.87
2022-08-08T03:13:00.994Z,74.56
2022-08-08T03:15:55.963Z,72.92
2022-08-08T03:15:56.574Z,71.94
2022-08-08T03:16:00.544Z,71.22
2022-08-08T03:16:37.304Z,70.09
2022-08-08T03:17:39.580Z,71.42
2022-08-08T03:18:35.934Z,72.55
2022-08-08T03:19:34.934Z,70.61
2022-08-08T03:20:34.913Z,72.45
2022-08-08T03:21:48.060Z,72.45
2022-08-08T03:22:38.626Z,74.29
2022-08-08T03:23:56.306Z,72.86
2022-08-08T03:24:35.879Z,74.19
2022-08-08T03:25:36.403Z,77.36
2022-08-08T03:26:41.921Z,79.30
2022-08-08T03:27:41.800Z,79.41
2022-08-08T03:28:35.792Z,80.02
2022-08-08T03:29:54.912Z,80.83
2022-08-08T03:30:35.791Z,80.74
2022-08-08T03:31:38.047Z,80.26
2022-08-08T03:32:35.744Z,76.88
2022-08-08T03:33:54.590Z,75.65
2022-08-08T03:34:35.737Z,76.57
2022-08-08T03:35:34.738Z,74.73
2022-08-08T03:36:34.692Z,75.24
2022-08-08T03:38:54.073Z,76.98
2022-08-08T03:38:56.356Z,75.24
2022-08-08T03:39:51.713Z,76.27
2022-08-08T03:40:35.700Z,74.94
2022-08-08T03:42:12.563Z,74.32
2022-08-08T03:42:35.611Z,75.24
2022-08-08T03:43:38.690Z,75.35
2022-08-08T03:44:35.607Z,73.50
2022-08-08T03:46:05.233Z,76.68
2022-08-08T03:46:35.591Z,78.31
2022-08-08T03:47:45.312Z,78.63
2022-08-08T03:49:09.448Z,76.98
2022-08-08T03:49:59.680Z,74.63
2022-08-08T03:50:35.526Z,72.99
2022-08-08T03:51:40.499Z,71.45
2022-08-08T03:52:35.779Z,71.15
2022-08-08T03:53:42.269Z,71.04
2022-08-08T03:54:41.759Z,71.56
2022-08-08T03:55:56.397Z,71.86
2022-08-08T03:56:35.690Z,72.89
2022-08-08T03:58:30.243Z,72.89
2022-08-08T03:58:37.770Z,73.81
2022-08-08T03:59:34.391Z,71.66
2022-08-08T04:00:35.390Z,71.45
2022-08-08T04:02:12.502Z,72.99
2022-08-08T04:02:51.527Z,73.50
2022-08-08T04:03:59.888Z,71.56
2022-08-08T04:04:35.463Z,70.74
2022-08-08T04:05:35.338Z,72.38
2022-08-08T04:06:34.309Z,70.43
2022-08-08T04:07:34.312Z,71.56
2022-08-08T04:08:34.572Z,70.12
2022-08-08T04:10:00.474Z,72.89
2022-08-08T04:10:35.251Z,76.34
2022-08-08T04:11:57.996Z,74.08
2022-08-08T04:12:35.222Z,71.53
2022-08-08T04:14:03.705Z,71.83
2022-08-08T04:14:36.324Z,70.81
2022-08-08T04:15:38.875Z,70.81
2022-08-08T04:16:40.704Z,69.89
2022-08-08T04:17:45.767Z,72.55
2022-08-08T04:18:44.997Z,72.45
2022-08-08T04:19:36.739Z,73.47
2022-08-08T04:20:34.102Z,75.72
2022-08-08T04:21:41.189Z,77.15
2022-08-08T04:22:35.517Z,76.84
2022-08-08T04:24:11.747Z,74.90
2022-08-08T04:24:35.051Z,73.68
2022-08-08T04:25:38.251Z,72.04
2022-08-08T04:26:40.268Z,74.08
2022-08-08T04:28:01.577Z,71.59
2022-08-08T04:28:40.266Z,72.11
2022-08-08T04:29:37.416Z,72.62
2022-08-08T04:30:36.734Z,70.88
2022-08-08T04:31:58.701Z,72.62
2022-08-08T04:32:34.980Z,72.62
2022-08-08T04:33:41.493Z,74.15
2022-08-08T04:34:49.477Z,74.97
2022-08-08T04:35:39.721Z,75.65
2022-08-08T04:36:34.897Z,76.57
2022-08-08T04:37:33.978Z,77.90
2022-08-08T04:38:33.899Z,78.31
2022-08-08T04:40:03.480Z,76.26
2022-08-08T04:40:34.865Z,73.61
2022-08-08T04:41:35.858Z,71.46
2022-08-08T04:42:33.860Z,72.99
2022-08-08T04:43:45.944Z,73.61
2022-08-08T04:44:34.797Z,74.90
2022-08-08T04:45:33.843Z,76.74
2022-08-08T04:46:33.769Z,76.12
2022-08-08T04:47:43.469Z,74.29
2022-08-08T04:48:34.771Z,74.39
2022-08-08T04:49:58.575Z,73.54
2022-08-08T04:50:37.958Z,74.46
2022-08-08T04:51:56.796Z,75.75
2022-08-08T04:52:35.362Z,77.72
2022-08-08T04:54:37.442Z,77.10
2022-08-08T04:54:39.317Z,74.89
2022-08-08T04:55:47.007Z,72.78
2022-08-08T04:56:34.670Z,70.59
2022-08-08T04:57:34.355Z,69.00
2022-08-08T04:58:33.680Z,67.72
2022-08-08T04:59:33.608Z,66.44
2022-08-08T05:00:34.586Z,64.86
2022-08-08T05:01:35.290Z,63.58
2022-08-08T05:02:33.943Z,62.31
2022-08-08T05:04:09.747Z,61.04
2022-08-08T05:04:34.559Z,60.17
2022-08-08T05:05:44.643Z,58.94
2022-08-08T05:06:36.335Z,58.78
2022-08-08T05:07:42.145Z,57.75
2022-08-08T05:08:34.511Z,56.99
2022-08-08T05:09:36.332Z,56.13
2022-08-08T05:10:33.464Z,54.90
2022-08-08T05:11:38.766Z,54.75
2022-08-08T05:12:34.876Z,53.22
2022-08-08T05:13:33.439Z,52.67
2022-08-08T05:14:33.413Z,52.34
2022-08-08T05:16:51.256Z,50.87
2022-08-08T05:16:53.441Z,51.52
2022-08-08T05:17:37.368Z,49.35
2022-08-08T05:18:34.362Z,48.60
2022-08-08T05:20:09.940Z,47.78
2022-08-08T05:20:38.855Z,47.36
2022-08-08T05:21:43.730Z,46.24
2022-08-08T05:22:34.314Z,45.62
2022-08-08T05:23:41.239Z,45.28
2022-08-08T05:24:34.288Z,44.96
2022-08-08T05:25:41.486Z,44.04
2022-08-08T05:26:34.257Z,42.83
2022-08-08T05:27:33.745Z,41.42
2022-08-08T05:28:56.745Z,40.82
2022-08-08T05:29:35.711Z,41.22
2022-08-08T05:30:33.225Z,40.70
2022-08-08T05:32:03.809Z,40.68
2022-08-08T05:32:36.489Z,40.26
2022-08-08T05:33:48.335Z,39.45
2022-08-08T05:34:34.153Z,38.74
2022-08-08T05:35:33.422Z,38.15
2022-08-08T05:36:33.123Z,38.32
2022-08-08T05:37:49.109Z,37.51
2022-08-08T05:38:34.119Z,37.20
2022-08-08T05:39:35.035Z,38.09
2022-08-08T05:40:33.075Z,35.99
2022-08-08T05:41:33.073Z,36.29
2022-08-08T05:42:34.450Z,36.87
2022-08-08T05:43:39.606Z,37.05
2022-08-08T05:44:34.014Z,35.64
2022-08-08T05:45:43.140Z,35.53
2022-08-08T05:46:33.993Z,35.71
2022-08-08T05:47:52.638Z,35.30
2022-08-08T05:48:34.661Z,34.08
2022-08-08T05:49:32.955Z,33.39
2022-08-08T05:50:33.945Z,33.38
2022-08-08T05:51:48.088Z,33.77
2022-08-08T05:52:35.805Z,34.05
2022-08-08T05:54:24.320Z,33.64
2022-08-08T05:54:43.316Z,32.17
2022-08-08T05:56:11.656Z,33.15
2022-08-08T05:56:33.868Z,33.03
2022-08-08T05:58:04.366Z,33.33
2022-08-08T05:58:34.055Z,31.64
2022-08-08T05:59:59.085Z,32.23
2022-08-08T06:00:34.204Z,31.94
2022-08-08T06:01:55.470Z,31.64
2022-08-08T06:02:33.811Z,31.84
2022-08-08T06:03:33.637Z,32.51
2022-08-08T06:04:32.768Z,31.43
2022-08-08T06:05:35.522Z,32.12
2022-08-08T06:06:32.772Z,32.30
2022-08-08T06:07:32.758Z,31.50
2022-08-08T06:08:34.490Z,31.19
2022-08-08T06:09:41.508Z,30.39
2022-08-08T06:10:34.765Z,31.16
2022-08-08T06:11:32.703Z,30.36
2022-08-08T06:12:32.939Z,30.44
2022-08-08T06:13:36.118Z,29.35
2022-08-08T06:14:33.640Z,30.04
2022-08-08T06:15:51.228Z,30.04
2022-08-08T06:16:33.628Z,29.34
2022-08-08T06:18:18.670Z,29.24
2022-08-08T06:18:33.591Z,30.32
2022-08-08T06:19:35.178Z,28.54
2022-08-08T06:20:32.562Z,28.72
2022-08-08T06:21:51.574Z,29.69
2022-08-08T06:22:33.755Z,29.10
2022-08-08T06:23:49.038Z,28.20
2022-08-08T06:24:36.136Z,28.20
2022-08-08T06:26:34.829Z,28.00
2022-08-08T06:26:43.797Z,28.08
2022-08-08T06:27:33.518Z,26.91
2022-08-08T06:28:32.478Z,27.50
2022-08-08T06:29:56.398Z,27.89
2022-08-08T06:30:33.448Z,27.30
2022-08-08T06:32:09.086Z,27.50
2022-08-08T06:32:33.433Z,26.52
2022-08-08T06:33:36.598Z,27.11
2022-08-08T06:34:33.390Z,27.40
2022-08-08T06:36:06.431Z,27.58
2022-08-08T06:36:36.215Z,27.95
2022-08-08T06:37:37.108Z,27.86
2022-08-08T06:38:32.377Z,27.06
2022-08-08T06:39:34.078Z,26.09
2022-08-08T06:40:32.341Z,25.98
2022-08-08T06:41:33.118Z,26.55
2022-08-08T06:42:32.317Z,26.25
2022-08-08T06:43:34.269Z,26.15
2022-08-08T06:44:32.270Z,25.85
2022-08-08T06:45:32.360Z,25.25
2022-08-08T06:46:32.254Z,25.14
2022-08-08T06:47:33.774Z,24.66
2022-08-08T06:48:33.220Z,25.13
2022-08-08T06:49:56.135Z,23.95
2022-08-08T06:50:33.917Z,23.76
2022-08-08T06:51:46.911Z,24.15
2022-08-08T06:52:33.183Z,24.15
2022-08-08T06:53:39.799Z,24.54
2022-08-08T06:54:33.156Z,24.13
2022-08-08T06:55:37.684Z,24.03
2022-08-08T06:56:33.155Z,23.65
2022-08-08T06:57:54.090Z,24.23
2022-08-08T06:58:33.628Z,24.72
2022-08-08T06:59:34.520Z,22.58
2022-08-08T07:00:33.083Z,23.37
2022-08-08T07:02:27.404Z,23.37
2022-08-08T07:02:33.169Z,24.46
2022-08-08T07:04:35.371Z,25.53
2022-08-08T07:04:41.419Z,24.35
2022-08-08T07:05:40.206Z,24.63
2022-08-08T07:06:33.062Z,24.34
2022-08-08T07:07:32.951Z,24.23
2022-08-08T07:08:32.991Z,24.22
2022-08-08T07:09:41.955Z,23.54
2022-08-08T07:10:32.977Z,23.25
2022-08-08T07:11:46.138Z,23.44
2022-08-08T07:12:32.971Z,23.83
2022-08-08T07:13:31.922Z,23.63
2022-08-08T07:14:31.916Z,23.72
2022-08-08T07:16:04.532Z,22.84
2022-08-08T07:16:32.903Z,22.34
2022-08-08T07:17:56.501Z,23.13
2022-08-08T07:18:36.161Z,22.66
2022-08-08T07:19:31.856Z,21.79
2022-08-08T07:20:31.858Z,23.06
2022-08-08T07:21:32.115Z,23.93
2022-08-08T07:22:31.816Z,23.33
2022-08-08T07:23:57.521Z,23.13
2022-08-08T07:24:32.799Z,22.65
2022-08-08T07:25:32.027Z,22.06
2022-08-08T07:26:35.184Z,22.75
2022-08-08T07:27:47.526Z,23.03
2022-08-08T07:28:32.788Z,23.32
2022-08-08T07:30:01.666Z,22.83
2022-08-08T07:30:32.733Z,23.02
2022-08-08T07:31:31.717Z,22.63
2022-08-08T07:32:31.719Z,22.72
2022-08-08T07:33:37.755Z,21.85
2022-08-08T07:34:32.744Z,22.33
2022-08-08T07:35:31.686Z,23.01
2022-08-08T07:36:31.683Z,23.21
2022-08-08T07:37:42.487Z,23.01
2022-08-08T07:38:32.639Z,22.05
2022-08-08T07:39:45.224Z,22.82
2022-08-08T07:40:32.982Z,21.37
2022-08-08T07:41:58.566Z,20.68
2022-08-08T07:42:33.013Z,22.03
2022-08-08T07:43:36.969Z,23.29
2022-08-08T07:44:38.113Z,21.17
2022-08-08T07:45:34.552Z,21.28
2022-08-08T07:46:31.577Z,21.50
2022-08-08T07:47:38.844Z,22.09
2022-08-08T07:48:32.568Z,22.09
2022-08-08T07:49:31.500Z,22.56
2022-08-08T07:50:31.494Z,23.61
2022-08-08T07:51:44.895Z,22.14
2022-08-08T07:52:32.483Z,22.91
2022-08-08T07:54:00.871Z,22.12
2022-08-08T07:54:32.468Z,22.80
2022-08-08T07:55:36.539Z,22.40
2022-08-08T07:56:35.443Z,21.42
2022-08-08T07:57:36.318Z,22.11
2022-08-08T07:58:32.402Z,22.11
2022-08-08T07:59:37.391Z,21.73
2022-08-08T08:00:32.377Z,20.97
2022-08-08T08:02:34.494Z,21.19
2022-08-08T08:02:35.996Z,22.37
2022-08-08T08:03:43.325Z,22.38
2022-08-08T08:04:32.362Z,22.67
2022-08-08T08:05:33.389Z,22.58
2022-08-08T08:06:31.306Z,22.79
2022-08-08T08:07:32.098Z,22.51
2022-08-08T08:08:32.287Z,22.81
2022-08-08T08:09:33.131Z,24.48
2022-08-08T08:10:33.371Z,23.39
2022-08-08T08:11:33.633Z,23.19
2022-08-08T08:12:35.718Z,22.41
2022-08-08T08:13:43.103Z,22.81
2022-08-08T08:14:32.214Z,23.60
2022-08-08T08:15:31.809Z,23.50
2022-08-08T08:16:32.230Z,23.89
2022-08-08T08:17:47.473Z,25.73
2022-08-08T08:18:33.836Z,23.49
2022-08-08T08:19:45.797Z,24.06
2022-08-08T08:20:32.157Z,23.95
2022-08-08T08:21:44.782Z,23.36
2022-08-08T08:22:33.482Z,23.37
2022-08-08T08:23:40.972Z,23.68
2022-08-08T08:24:35.262Z,25.42
2022-08-08T08:25:43.663Z,24.35
2022-08-08T08:26:32.092Z,23.86
2022-08-08T08:27:31.113Z,23.76
2022-08-08T08:28:31.048Z,24.73
2022-08-08T08:29:31.039Z,21.82
2022-08-08T08:30:31.085Z,22.02
2022-08-08T08:31:31.011Z,22.02
2022-08-08T08:32:36.617Z,21.94
2022-08-08T08:33:31.980Z,22.63
2022-08-08T08:34:32.189Z,23.31
2022-08-08T08:36:19.211Z,22.05
2022-08-08T08:36:31.980Z,22.35
2022-08-08T08:37:31.087Z,23.22
2022-08-08T08:38:30.932Z,22.44
2022-08-08T08:39:59.427Z,21.77
2022-08-08T08:40:32.022Z,22.14
2022-08-08T08:41:31.247Z,22.16
2022-08-08T08:42:35.238Z,23.13
2022-08-08T08:43:31.860Z,22.07
2022-08-08T08:44:30.851Z,22.37
2022-08-08T08:45:30.862Z,23.84
2022-08-08T08:46:30.824Z,24.02
2022-08-08T08:47:43.707Z,25.67
2022-08-08T08:48:31.811Z,23.62
2022-08-08T08:49:34.129Z,22.96
2022-08-08T08:50:33.745Z,23.35
2022-08-08T08:51:30.767Z,23.94
2022-08-08T08:52:30.767Z,22.97
2022-08-08T08:53:55.967Z,23.07
2022-08-08T08:54:32.411Z,22.97
2022-08-08T08:55:30.726Z,22.89
2022-08-08T08:56:31.705Z,24.65
2022-08-08T08:57:30.686Z,24.83
2022-08-08T08:58:30.687Z,24.73
2022-08-08T08:59:59.392Z,25.49
2022-08-08T09:00:49.824Z,24.41
2022-08-08T09:01:32.182Z,23.44
2022-08-08T09:02:30.627Z,22.86
2022-08-08T09:03:45.598Z,22.56
2022-08-08T09:04:38.662Z,23.73
2022-08-08T09:05:54.472Z,24.41
2022-08-08T09:06:34.325Z,23.63
2022-08-08T09:07:39.635Z,23.73
2022-08-08T09:08:31.566Z,22.86
2022-08-08T09:09:38.973Z,24.01
2022-08-08T09:10:31.554Z,23.33
2022-08-08T09:11:33.089Z,22.27
2022-08-08T09:12:30.509Z,22.19
2022-08-08T09:13:30.498Z,23.16
2022-08-08T09:14:30.503Z,22.97
2022-08-08T09:15:41.418Z,21.81
2022-08-08T09:16:32.878Z,23.08
2022-08-08T09:17:41.138Z,25.32
2022-08-08T09:18:31.437Z,24.26
2022-08-08T09:21:57.481Z,24.06
2022-08-08T09:21:58.837Z,25.03
2022-08-08T09:22:02.631Z,24.74
2022-08-08T09:22:31.439Z,24.55
2022-08-08T09:23:33.514Z,24.06
2022-08-08T09:24:31.418Z,24.74
2022-08-08T09:25:36.005Z,24.37
2022-08-08T09:26:32.452Z,22.71
2022-08-08T09:27:55.786Z,22.62
2022-08-08T09:28:38.443Z,24.48
2022-08-08T09:29:31.313Z,24.77
2022-08-08T09:30:30.291Z,26.14
2022-08-08T09:31:42.554Z,24.88
2022-08-08T09:32:31.365Z,25.16
2022-08-08T09:34:15.488Z,25.85
2022-08-08T09:34:34.938Z,27.02
2022-08-08T09:35:31.801Z,25.85
2022-08-08T09:36:30.245Z,24.96
2022-08-08T09:37:58.628Z,25.25
2022-08-08T09:38:32.087Z,23.50
2022-08-08T09:39:32.777Z,24.77
2022-08-08T09:40:44.097Z,25.84
2022-08-08T09:41:33.699Z,23.50
2022-08-08T09:42:31.144Z,24.87
2022-08-08T09:43:41.164Z,24.48
2022-08-08T09:44:34.270Z,25.35
2022-08-08T09:45:54.543Z,25.05
2022-08-08T09:46:32.064Z,24.66
2022-08-08T09:48:09.966Z,26.90
2022-08-08T09:48:35.407Z,25.04
2022-08-08T09:49:42.802Z,24.77
2022-08-08T09:50:34.596Z,23.12
2022-08-08T09:51:30.077Z,23.13
2022-08-08T09:53:14.466Z,23.14
2022-08-08T09:53:53.155Z,26.18
2022-08-08T09:54:37.611Z,24.62
2022-08-08T09:55:51.825Z,25.40
2022-08-08T09:56:30.979Z,24.33
2022-08-08T09:57:32.561Z,26.40
2022-08-08T09:58:41.640Z,26.88
2022-08-08T10:00:01.873Z,27.08
2022-08-08T10:00:49.717Z,26.77
2022-08-08T10:01:58.504Z,26.38
2022-08-08T10:02:31.096Z,26.66
2022-08-08T10:03:31.612Z,25.29
2022-08-08T10:04:41.340Z,26.07
2022-08-08T10:05:31.089Z,27.34
2022-08-08T10:06:29.924Z,27.73
2022-08-08T10:07:36.033Z,26.07
2022-08-08T10:08:30.907Z,25.88
2022-08-08T10:09:29.819Z,26.46
2022-08-08T10:10:31.831Z,26.56
2022-08-08T10:12:26.038Z,24.32
2022-08-08T10:12:37.945Z,26.87
2022-08-08T10:13:35.561Z,26.57
2022-08-08T10:14:38.181Z,26.46
2022-08-08T10:15:30.728Z,25.88
2022-08-08T10:16:29.731Z,24.62
2022-08-08T10:17:56.583Z,24.22
2022-08-08T10:18:30.798Z,23.26
2022-08-08T10:19:29.683Z,26.11
2022-08-08T10:20:41.383Z,25.33
2022-08-08T10:21:32.823Z,27.87
2022-08-08T10:22:32.039Z,27.09
2022-08-08T10:23:42.438Z,27.38
2022-08-08T10:24:35.203Z,27.48
2022-08-08T10:25:36.150Z,26.51
2022-08-08T10:26:56.770Z,27.29
2022-08-08T10:27:34.207Z,26.42
2022-08-08T10:28:29.604Z,25.83
2022-08-08T10:29:37.974Z,25.54
2022-08-08T10:31:00.357Z,27.01
2022-08-08T10:31:47.554Z,26.62
2022-08-08T10:32:30.637Z,25.95
2022-08-08T10:33:38.240Z,27.42
2022-08-08T10:34:30.506Z,25.46
2022-08-08T10:36:08.765Z,28.78
2022-08-08T10:36:31.036Z,24.18
2022-08-08T10:37:30.355Z,28.39
2022-08-08T10:38:36.519Z,28.29
2022-08-08T10:39:31.593Z,28.49
2022-08-08T10:40:30.896Z,27.20
2022-08-08T10:41:35.670Z,26.51
2022-08-08T10:42:30.612Z,27.98
2022-08-08T10:43:32.072Z,26.90
2022-08-08T10:44:30.374Z,26.90
2022-08-08T10:45:29.372Z,25.05
2022-08-08T10:46:30.794Z,27.10
2022-08-08T10:47:30.610Z,25.63
2022-08-08T10:48:30.358Z,26.92
2022-08-08T10:50:01.740Z,26.33
2022-08-08T10:50:30.767Z,26.43
2022-08-08T10:51:31.302Z,27.31
2022-08-08T10:52:31.122Z,27.90
2022-08-08T10:53:39.274Z,28.78
2022-08-08T10:54:30.256Z,28.68
2022-08-08T10:55:41.586Z,28.47
2022-08-08T10:56:34.440Z,27.20
2022-08-08T10:57:49.485Z,29.24
2022-08-08T10:58:30.219Z,26.60
2022-08-08T10:59:31.035Z,26.99
2022-08-08T11:00:29.200Z,26.21
2022-08-08T11:01:29.215Z,26.60
2022-08-08T11:02:29.516Z,27.28
2022-08-08T11:03:37.015Z,27.78
2022-08-08T11:04:39.160Z,27.77
2022-08-08T11:05:38.271Z,25.92
2022-08-08T11:06:30.120Z,25.23
2022-08-08T11:08:31.904Z,23.86
2022-08-08T11:08:40.935Z,26.71
2022-08-08T11:09:31.966Z,24.75
2022-08-08T11:10:29.760Z,26.32
2022-08-08T11:11:32.442Z,24.86
2022-08-08T11:12:30.138Z,26.90
2022-08-08T11:13:32.059Z,25.63
2022-08-08T11:14:29.031Z,23.09
2022-08-08T11:15:30.805Z,23.38
2022-08-08T11:16:32.400Z,25.94
2022-08-08T11:17:58.439Z,24.96
2022-08-08T11:18:30.217Z,24.97
2022-08-08T11:19:28.962Z,26.54
2022-08-08T11:20:28.947Z,25.77
2022-08-08T11:21:35.228Z,24.49
2022-08-08T11:22:30.129Z,27.06
2022-08-08T11:23:31.410Z,28.23
2022-08-08T11:24:29.023Z,26.55
2022-08-08T11:25:52.717Z,28.61
2022-08-08T11:26:29.853Z,25.48
2022-08-08T11:27:29.116Z,26.84
2022-08-08T11:28:31.722Z,28.81
2022-08-08T11:29:41.909Z,28.99
2022-08-08T11:30:31.740Z,27.81
2022-08-08T11:31:30.066Z,25.45
2022-08-08T11:32:30.569Z,26.93
2022-08-08T11:33:52.001Z,27.14
2022-08-08T11:34:41.881Z,25.78
2022-08-08T11:35:38.370Z,25.88
2022-08-08T11:36:29.725Z,27.06
2022-08-08T11:38:35.411Z,28.23
2022-08-08T11:38:39.056Z,26.76
2022-08-08T11:39:36.803Z,24.70
2022-08-08T11:40:31.447Z,25.59
2022-08-08T11:41:32.593Z,24.71
2022-08-08T11:42:31.257Z,26.48
2022-08-08T11:43:39.506Z,28.05
2022-08-08T11:44:29.671Z,25.99
2022-08-08T11:45:29.769Z,27.35
2022-08-08T11:46:30.625Z,28.82
2022-08-08T11:47:39.224Z,24.41
2022-08-08T11:48:29.607Z,25.60
2022-08-08T11:49:28.579Z,26.67
2022-08-08T11:50:29.769Z,27.15
2022-08-08T11:51:29.910Z,25.49
2022-08-08T11:52:31.943Z,28.63
2022-08-08T11:53:28.540Z,30.87
2022-08-08T11:54:33.301Z,29.30
2022-08-08T11:55:28.727Z,29.08
2022-08-08T11:56:28.488Z,27.70
2022-08-08T11:57:32.461Z,27.70
2022-08-08T11:58:29.472Z,27.80
2022-08-08T11:59:58.654Z,28.77
2022-08-08T12:00:29.447Z,26.71
2022-08-08T12:01:28.422Z,29.44
2022-08-08T12:02:32.603Z,27.58
2022-08-08T12:03:30.632Z,28.45
2022-08-08T12:04:28.383Z,29.83
2022-08-08T12:05:28.386Z,26.50
2022-08-08T12:06:28.351Z,27.28
2022-08-08T12:07:28.561Z,24.93
2022-08-08T12:08:28.345Z,27.38
2022-08-08T12:09:28.324Z,27.67
2022-08-08T12:10:29.304Z,27.77
2022-08-08T12:11:29.273Z,25.52
2022-08-08T12:12:29.179Z,27.87
2022-08-08T12:13:37.793Z,27.38
2022-08-08T12:14:29.541Z,25.62
2022-08-08T12:15:28.276Z,27.67
2022-08-08T12:16:34.270Z,29.63
2022-08-08T12:17:29.241Z,26.79
2022-08-08T12:18:29.218Z,27.97
2022-08-08T12:19:37.432Z,24.25
2022-08-08T12:20:29.196Z,26.81
2022-08-08T12:22:00.725Z,28.67
2022-08-08T12:22:35.741Z,27.59
2022-08-08T12:23:39.954Z,25.44
2022-08-08T12:24:29.920Z,23.59
2022-08-08T12:25:30.045Z,23.69
2022-08-08T12:26:35.861Z,24.58
2022-08-08T12:27:43.297Z,26.34
2022-08-08T12:28:29.098Z,28.11
2022-08-08T12:29:40.187Z,28.88
2022-08-08T12:30:29.098Z,26.25
2022-08-08T12:31:28.057Z,28.20
2022-08-08T12:32:31.343Z,27.14
2022-08-08T12:33:37.776Z,27.92
2022-08-08T12:34:35.967Z,25.96
2022-08-08T12:35:29.030Z,24.79
2022-08-08T12:36:28.625Z,27.35
2022-08-08T12:37:40.968Z,26.37
2022-08-08T12:38:30.400Z,27.92
2022-08-08T12:40:01.744Z,27.24
2022-08-08T12:40:29.014Z,28.22
2022-08-08T12:41:35.163Z,29.97
2022-08-08T12:42:33.772Z,28.99
2022-08-08T12:43:32.781Z,30.46
2022-08-08T12:44:32.173Z,25.56
2022-08-08T12:45:59.040Z,24.38
2022-08-08T12:46:29.189Z,27.91
2022-08-08T12:47:57.812Z,27.72
2022-08-08T12:48:37.189Z,25.07
2022-08-08T12:49:43.233Z,25.96
2022-08-08T12:50:28.820Z,24.79
2022-08-08T12:51:39.621Z,23.82